createdAt,value
2022-10-04T00:00:12.261Z,50.18
2022-10-04T00:00:41.802Z,50.30
2022-10-04T00:01:08.755Z,50.47
2022-10-04T00:01:32.831Z,50.38
2022-10-04T00:01:59.089Z,50.39
2022-10-04T00:02:26.653Z,50.42
2022-10-04T00:02:49.091Z,50.23
2022-10-04T00:03:18.078Z,50.17
2022-10-04T00:03:44.863Z,50.52
2022-10-04T00:04:11.624Z,50.39
2022-10-04T00:04:42.451Z,50.20
2022-10-04T00:05:08.045Z,50.29
2022-10-04T00:05:32.464Z,50.38
2022-10-04T00:05:57.240Z,50.08
2022-10-04T00:06:21.467Z,50.17
2022-10-04T00:06:48.843Z,49.98
2022-10-04T00:07:22.187Z,49.71
2022-10-04T00:07:48.335Z,49.49
2022-10-04T00:08:26.321Z,49.45
2022-10-04T00:08:52.036Z,49.50
2022-10-04T00:09:20.707Z,49.63
2022-10-04T00:09:46.155Z,49.66
2022-10-04T00:10:18.901Z,49.62
2022-10-04T00:10:41.521Z,49.53
2022-10-04T00:11:06.506Z,49.30
2022-10-04T00:11:33.228Z,49.49
2022-10-04T00:11:57.444Z,49.47
2022-10-04T00:12:22.225Z,49.34
2022-10-04T00:12:48.955Z,49.21
2022-10-04T00:13:18.572Z,49.14
2022-10-04T00:13:47.034Z,49.24
2022-10-04T00:14:16.905Z,49.28
2022-10-04T00:14:39.699Z,49.35
2022-10-04T00:15:06.367Z,49.41
2022-10-04T00:15:30.678Z,49.39
2022-10-04T00:15:52.655Z,49.50
2022-10-04T00:16:23.095Z,49.64
2022-10-04T00:16:46.624Z,49.57
2022-10-04T00:17:12.259Z,49.47
2022-10-04T00:17:35.603Z,49.43
2022-10-04T00:18:06.244Z,49.33
2022-10-04T00:18:31.549Z,49.37
2022-10-04T00:19:03.408Z,49.35
2022-10-04T00:19:38.602Z,49.48
2022-10-04T00:20:01.557Z,49.44
2022-10-04T00:21:04.163Z,49.56
2022-10-04T00:22:03.193Z,49.67
2022-10-04T00:22:29.136Z,49.61
2022-10-04T00:23:28.522Z,49.63
2022-10-04T00:23:50.100Z,49.67
2022-10-04T00:24:22.950Z,49.78
2022-10-04T00:25:18.563Z,49.77
2022-10-04T00:25:41.166Z,49.46
2022-10-04T00:26:05.566Z,49.54
2022-10-04T00:27:19.190Z,49.42
2022-10-04T00:28:26.394Z,49.60
2022-10-04T00:28:49.440Z,49.99
2022-10-04T00:29:33.076Z,49.89
2022-10-04T00:30:17.034Z,49.84
2022-10-04T00:30:41.412Z,49.67
2022-10-04T00:31:18.399Z,49.46
2022-10-04T00:32:30.038Z,49.41
2022-10-04T00:33:01.071Z,49.24
2022-10-04T00:33:35.229Z,48.97
2022-10-04T00:34:37.824Z,49.05
2022-10-04T00:35:00.110Z,49.06
2022-10-04T00:35:48.437Z,49.20
2022-10-04T00:36:39.811Z,49.26
2022-10-04T00:37:02.853Z,49.34
2022-10-04T00:37:26.132Z,49.34
2022-10-04T00:37:57.802Z,49.26
2022-10-04T00:38:28.406Z,49.40
2022-10-04T00:39:03.628Z,49.38
2022-10-04T00:39:38.043Z,49.38
2022-10-04T00:40:05.915Z,49.59
2022-10-04T00:40:30.189Z,49.55
2022-10-04T00:40:57.920Z,49.71
2022-10-04T00:41:21.459Z,49.59
2022-10-04T00:41:54.434Z,49.28
2022-10-04T00:42:33.493Z,49.01
2022-10-04T00:42:58.710Z,49.18
2022-10-04T00:43:26.106Z,49.19
2022-10-04T00:43:50.619Z,49.18
2022-10-04T00:44:21.581Z,49.20
2022-10-04T00:44:51.279Z,49.06
2022-10-04T00:45:35.832Z,49.27
2022-10-04T00:46:02.905Z,49.10
2022-10-04T00:46:30.145Z,48.96
2022-10-04T00:46:54.199Z,48.96
2022-10-04T00:47:31.596Z,49.13
2022-10-04T00:48:05.848Z,49.25
2022-10-04T00:48:35.900Z,49.12
2022-10-04T00:49:02.676Z,49.11
2022-10-04T00:49:30.448Z,48.71
2022-10-04T00:49:56.439Z,48.52
2022-10-04T00:50:21.792Z,48.65
2022-10-04T00:50:50.461Z,48.62
2022-10-04T00:51:26.236Z,48.46
2022-10-04T00:51:53.166Z,48.56
2022-10-04T00:52:19.276Z,48.35
2022-10-04T00:52:45.357Z,48.29
2022-10-04T00:53:20.083Z,48.42
2022-10-04T00:54:01.169Z,48.50
2022-10-04T00:54:30.841Z,48.53
2022-10-04T00:54:56.961Z,48.37
2022-10-04T00:55:26.375Z,48.55
2022-10-04T00:55:51.534Z,48.71
2022-10-04T00:56:20.160Z,48.89
2022-10-04T00:56:48.590Z,48.63
2022-10-04T00:57:15.097Z,48.66
2022-10-04T00:57:42.368Z,48.83
2022-10-04T00:58:08.671Z,48.59
2022-10-04T00:58:36.250Z,48.76
2022-10-04T00:59:14.228Z,48.63
2022-10-04T00:59:40.060Z,48.74
2022-10-04T01:00:05.430Z,48.66
2022-10-04T01:00:29.656Z,48.79
2022-10-04T01:00:54.383Z,48.88
2022-10-04T01:01:25.669Z,48.81
2022-10-04T01:01:53.830Z,49.03
2022-10-04T01:02:18.746Z,48.78
2022-10-04T01:02:53.345Z,48.99
2022-10-04T01:03:21.918Z,49.05
2022-10-04T01:03:44.457Z,49.00
2022-10-04T01:04:15.477Z,49.41
2022-10-04T01:04:42.310Z,49.44
2022-10-04T01:05:10.576Z,49.44
2022-10-04T01:05:34.484Z,49.47
2022-10-04T01:05:59.626Z,49.42
2022-10-04T01:06:21.820Z,49.60
2022-10-04T01:06:45.112Z,49.56
2022-10-04T01:07:08.773Z,49.62
2022-10-04T01:07:34.531Z,49.44
2022-10-04T01:08:04.341Z,49.22
2022-10-04T01:08:31.215Z,48.98
2022-10-04T01:08:56.947Z,48.90
2022-10-04T01:09:20.312Z,48.91
2022-10-04T01:09:50.533Z,49.01
2022-10-04T01:10:20.968Z,49.26
2022-10-04T01:10:48.750Z,49.54
2022-10-04T01:11:15.019Z,49.61
2022-10-04T01:11:43.316Z,49.71
2022-10-04T01:12:10.755Z,49.95
2022-10-04T01:12:40.803Z,49.54
2022-10-04T01:13:07.892Z,49.52
2022-10-04T01:13:35.847Z,49.25
2022-10-04T01:14:00.722Z,49.08
2022-10-04T01:14:29.475Z,49.15
2022-10-04T01:14:59.768Z,49.42
2022-10-04T01:15:29.964Z,49.77
2022-10-04T01:15:58.034Z,49.90
2022-10-04T01:16:22.368Z,49.82
2022-10-04T01:16:44.040Z,49.69
2022-10-04T01:17:05.945Z,49.53
2022-10-04T01:17:28.528Z,49.47
2022-10-04T01:18:14.416Z,49.86
2022-10-04T01:18:36.682Z,49.61
2022-10-04T01:19:31.221Z,49.51
2022-10-04T01:19:54.239Z,49.46
2022-10-04T01:20:32.665Z,49.31
2022-10-04T01:20:59.073Z,49.21
2022-10-04T01:21:27.193Z,49.23
2022-10-04T01:21:59.341Z,49.02
2022-10-04T01:22:35.389Z,49.02
2022-10-04T01:22:58.084Z,48.99
2022-10-04T01:23:41.819Z,49.13
2022-10-04T01:24:18.190Z,49.00
2022-10-04T01:24:42.733Z,49.10
2022-10-04T01:25:04.889Z,49.16
2022-10-04T01:25:47.902Z,49.19
2022-10-04T01:26:37.591Z,49.12
2022-10-04T01:27:00.668Z,49.33
2022-10-04T01:27:34.260Z,49.46
2022-10-04T01:27:59.227Z,49.31
2022-10-04T01:28:21.467Z,49.45
2022-10-04T01:28:43.536Z,49.40
2022-10-04T01:29:12.148Z,49.49
2022-10-04T01:29:35.639Z,49.55
2022-10-04T01:29:58.343Z,49.58
2022-10-04T01:30:20.230Z,49.45
2022-10-04T01:30:42.294Z,49.45
2022-10-04T01:31:04.976Z,49.59
2022-10-04T01:31:27.304Z,49.58
2022-10-04T01:31:51.330Z,49.62
2022-10-04T01:32:13.072Z,49.59
2022-10-04T01:32:36.150Z,49.60
2022-10-04T01:32:58.353Z,49.45
2022-10-04T01:33:20.035Z,49.61
2022-10-04T01:33:41.666Z,49.41
2022-10-04T01:34:06.097Z,49.58
2022-10-04T01:34:29.476Z,49.54
2022-10-04T01:34:51.142Z,49.41
2022-10-04T01:35:16.206Z,49.39
2022-10-04T01:35:38.052Z,49.49
2022-10-04T01:35:59.896Z,49.59
2022-10-04T01:36:22.200Z,49.72
2022-10-04T01:36:46.011Z,49.68
2022-10-04T01:37:08.613Z,49.77
2022-10-04T01:37:31.821Z,49.61
2022-10-04T01:37:54.127Z,49.47
2022-10-04T01:38:15.775Z,49.55
2022-10-04T01:38:38.375Z,49.68
2022-10-04T01:39:00.479Z,49.68
2022-10-04T01:39:24.237Z,49.63
2022-10-04T01:39:45.900Z,49.35
2022-10-04T01:40:10.464Z,49.41
2022-10-04T01:40:32.613Z,49.64
2022-10-04T01:41:00.296Z,49.44
2022-10-04T01:41:28.776Z,49.72
2022-10-04T01:41:57.056Z,49.59
2022-10-04T01:42:23.352Z,49.62
2022-10-04T01:42:50.140Z,49.48
2022-10-04T01:43:19.128Z,49.42
2022-10-04T01:43:44.093Z,49.47
2022-10-04T01:44:09.570Z,49.29
2022-10-04T01:44:37.012Z,49.43
2022-10-04T01:45:08.176Z,49.62
2022-10-04T01:45:35.432Z,49.59
2022-10-04T01:46:02.682Z,49.57
2022-10-04T01:46:29.159Z,49.38
2022-10-04T01:46:55.098Z,49.52
2022-10-04T01:47:21.134Z,49.60
2022-10-04T01:47:47.289Z,49.47
2022-10-04T01:48:12.828Z,49.64
2022-10-04T01:48:38.347Z,49.72
2022-10-04T01:49:04.419Z,49.66
2022-10-04T01:49:29.147Z,49.45
2022-10-04T01:49:53.201Z,49.57
2022-10-04T01:50:19.785Z,49.68
2022-10-04T01:50:47.997Z,49.52
2022-10-04T01:51:16.313Z,49.65
2022-10-04T01:51:44.167Z,49.63
2022-10-04T01:52:10.393Z,49.53
2022-10-04T01:52:38.816Z,49.44
2022-10-04T01:53:10.723Z,49.44
2022-10-04T01:53:40.787Z,49.74
2022-10-04T01:54:07.810Z,49.52
2022-10-04T01:54:34.938Z,49.43
2022-10-04T01:55:02.932Z,49.27
2022-10-04T01:55:28.750Z,49.31
2022-10-04T01:55:52.737Z,49.25
2022-10-04T01:56:18.875Z,49.30
2022-10-04T01:56:44.274Z,49.43
2022-10-04T01:57:13.333Z,49.79
2022-10-04T01:57:39.550Z,49.75
2022-10-04T01:58:07.683Z,49.58
2022-10-04T01:58:39.552Z,49.59
2022-10-04T01:59:05.552Z,49.35
2022-10-04T01:59:32.719Z,49.48
2022-10-04T02:00:01.425Z,49.65
2022-10-04T02:00:25.853Z,49.33
2022-10-04T02:00:55.819Z,49.45
2022-10-04T02:01:26.408Z,49.33
2022-10-04T02:01:53.526Z,49.13
2022-10-04T02:02:23.559Z,49.19
2022-10-04T02:02:53.099Z,49.45
2022-10-04T02:03:20.928Z,49.62
2022-10-04T02:03:48.256Z,49.75
2022-10-04T02:04:17.442Z,49.37
2022-10-04T02:04:48.101Z,49.32
2022-10-04T02:05:13.440Z,49.22
2022-10-04T02:05:40.145Z,49.46
2022-10-04T02:06:05.823Z,49.37
2022-10-04T02:06:29.971Z,49.45
2022-10-04T02:06:54.448Z,49.34
2022-10-04T02:07:16.470Z,49.04
2022-10-04T02:07:42.696Z,49.00
2022-10-04T02:08:07.705Z,48.95
2022-10-04T02:08:32.913Z,48.88
2022-10-04T02:08:57.738Z,48.77
2022-10-04T02:09:23.097Z,48.79
2022-10-04T02:09:47.760Z,48.76
2022-10-04T02:10:13.031Z,48.68
2022-10-04T02:10:43.223Z,48.70
2022-10-04T02:11:06.712Z,48.48
2022-10-04T02:11:31.096Z,48.71
2022-10-04T02:11:54.401Z,48.58
2022-10-04T02:12:16.910Z,48.58
2022-10-04T02:12:46.882Z,48.58
2022-10-04T02:13:10.694Z,48.50
2022-10-04T02:13:35.861Z,48.55
2022-10-04T02:13:58.401Z,48.39
2022-10-04T02:14:25.329Z,48.56
2022-10-04T02:14:52.582Z,48.82
2022-10-04T02:15:16.319Z,48.85
2022-10-04T02:15:39.473Z,49.01
2022-10-04T02:16:03.771Z,48.97
2022-10-04T02:16:26.538Z,49.17
2022-10-04T02:16:53.833Z,49.08
2022-10-04T02:17:17.219Z,49.06
2022-10-04T02:17:42.867Z,49.22
2022-10-04T02:18:10.503Z,49.23
2022-10-04T02:18:34.171Z,48.90
2022-10-04T02:18:57.424Z,48.99
2022-10-04T02:19:20.004Z,49.21
2022-10-04T02:19:42.398Z,48.92
2022-10-04T02:20:13.090Z,48.91
2022-10-04T02:20:36.046Z,49.04
2022-10-04T02:20:58.755Z,49.09
2022-10-04T02:21:22.636Z,49.13
2022-10-04T02:21:45.328Z,49.23
2022-10-04T02:22:09.837Z,49.29
2022-10-04T02:22:32.625Z,49.23
2022-10-04T02:22:59.396Z,49.27
2022-10-04T02:23:22.572Z,49.33
2022-10-04T02:23:46.217Z,49.28
2022-10-04T02:24:09.636Z,49.28
2022-10-04T02:24:35.397Z,49.10
2022-10-04T02:24:58.937Z,49.17
2022-10-04T02:25:21.264Z,49.32
2022-10-04T02:25:42.847Z,49.31
2022-10-04T02:26:04.867Z,49.23
2022-10-04T02:26:27.170Z,49.22
2022-10-04T02:26:53.352Z,49.15
2022-10-04T02:27:15.318Z,49.15
2022-10-04T02:27:37.045Z,49.07
2022-10-04T02:27:58.852Z,49.22
2022-10-04T02:28:21.580Z,49.21
2022-10-04T02:28:43.281Z,49.15
2022-10-04T02:29:04.964Z,49.09
2022-10-04T02:29:26.888Z,49.26
2022-10-04T02:29:48.480Z,49.25
2022-10-04T02:30:12.992Z,49.13
2022-10-04T02:30:36.817Z,49.35
2022-10-04T02:31:17.882Z,49.25
2022-10-04T02:31:58.743Z,49.23
2022-10-04T02:32:39.316Z,49.21
2022-10-04T02:33:02.931Z,49.17
2022-10-04T02:33:24.559Z,49.59
2022-10-04T02:33:50.280Z,49.72
2022-10-04T02:34:13.830Z,49.49
2022-10-04T02:34:36.332Z,49.67
2022-10-04T02:34:58.876Z,49.39
2022-10-04T02:35:21.119Z,49.38
2022-10-04T02:35:46.488Z,49.26
2022-10-04T02:36:10.256Z,49.41
2022-10-04T02:36:33.184Z,49.54
2022-10-04T02:36:54.964Z,49.47
2022-10-04T02:37:18.264Z,49.52
2022-10-04T02:37:40.789Z,49.77
2022-10-04T02:38:13.521Z,49.81
2022-10-04T02:38:38.109Z,49.92
2022-10-04T02:39:05.960Z,49.55
2022-10-04T02:39:32.278Z,49.40
2022-10-04T02:39:58.196Z,49.52
2022-10-04T02:40:24.575Z,49.43
2022-10-04T02:40:57.799Z,49.36
2022-10-04T02:41:25.167Z,49.20
2022-10-04T02:41:51.757Z,49.21
2022-10-04T02:42:19.807Z,49.26
2022-10-04T02:42:49.945Z,49.11
2022-10-04T02:43:16.856Z,49.03
2022-10-04T02:43:45.284Z,49.07
2022-10-04T02:44:15.501Z,49.03
2022-10-04T02:44:43.067Z,49.05
2022-10-04T02:45:12.538Z,48.89
2022-10-04T02:45:43.177Z,49.01
2022-10-04T02:46:09.982Z,49.27
2022-10-04T02:46:38.817Z,49.36
2022-10-04T02:47:09.039Z,49.46
2022-10-04T02:47:37.321Z,49.49
2022-10-04T02:48:04.496Z,49.40
2022-10-04T02:48:37.057Z,49.54
2022-10-04T02:49:01.938Z,49.68
2022-10-04T02:49:29.792Z,49.77
2022-10-04T02:49:55.500Z,49.93
2022-10-04T02:50:26.319Z,49.98
2022-10-04T02:50:53.796Z,49.98
2022-10-04T02:51:20.803Z,49.99
2022-10-04T02:51:49.916Z,50.08
2022-10-04T02:52:16.325Z,50.02
2022-10-04T02:52:45.280Z,49.77
2022-10-04T02:53:17.920Z,50.08
2022-10-04T02:53:50.408Z,49.99
2022-10-04T02:54:21.220Z,49.88
2022-10-04T02:54:46.842Z,49.93
2022-10-04T02:55:21.236Z,49.89
2022-10-04T02:55:43.561Z,49.89
2022-10-04T02:56:05.741Z,49.81
2022-10-04T02:56:27.808Z,49.79
2022-10-04T02:56:52.985Z,49.79
2022-10-04T02:57:19.209Z,49.85
2022-10-04T02:57:43.287Z,49.96
2022-10-04T02:58:09.690Z,49.96
2022-10-04T02:58:32.522Z,49.89
2022-10-04T02:58:55.633Z,50.13
2022-10-04T02:59:18.357Z,50.28
2022-10-04T02:59:40.032Z,50.18
2022-10-04T03:00:10.623Z,50.14
2022-10-04T03:00:34.108Z,49.98
2022-10-04T03:00:58.107Z,49.86
2022-10-04T03:01:26.571Z,49.90
2022-10-04T03:01:52.503Z,49.90
2022-10-04T03:02:29.686Z,49.93
2022-10-04T03:03:15.843Z,50.04
2022-10-04T03:03:39.297Z,50.09
2022-10-04T03:04:02.635Z,50.05
2022-10-04T03:04:26.769Z,50.13
2022-10-04T03:04:50.115Z,50.00
2022-10-04T03:05:15.977Z,50.21
2022-10-04T03:05:39.227Z,50.19
2022-10-04T03:06:04.660Z,50.30
2022-10-04T03:06:32.407Z,50.12
2022-10-04T03:06:55.893Z,50.05
2022-10-04T03:07:18.558Z,50.21
2022-10-04T03:07:42.256Z,50.15
2022-10-04T03:08:04.433Z,50.21
2022-10-04T03:08:30.402Z,49.98
2022-10-04T03:08:57.996Z,50.21
2022-10-04T03:09:26.181Z,49.93
2022-10-04T03:09:51.242Z,49.86
2022-10-04T03:10:15.128Z,49.85
2022-10-04T03:10:36.812Z,49.98
2022-10-04T03:10:59.639Z,49.79
2022-10-04T03:11:24.684Z,49.77
2022-10-04T03:11:47.802Z,49.92
2022-10-04T03:12:12.868Z,49.95
2022-10-04T03:12:35.135Z,50.02
2022-10-04T03:12:57.517Z,49.92
2022-10-04T03:13:20.668Z,50.01
2022-10-04T03:13:46.748Z,49.99
2022-10-04T03:14:15.182Z,49.99
2022-10-04T03:14:38.652Z,49.72
2022-10-04T03:15:00.316Z,49.83
2022-10-04T03:15:22.512Z,49.89
2022-10-04T03:15:45.320Z,50.00
2022-10-04T03:16:07.209Z,49.93
2022-10-04T03:16:35.736Z,49.67
2022-10-04T03:17:01.579Z,49.87
2022-10-04T03:17:23.349Z,49.76
2022-10-04T03:17:45.025Z,49.68
2022-10-04T03:18:06.768Z,49.95
2022-10-04T03:18:29.839Z,49.69
2022-10-04T03:18:54.764Z,50.05
2022-10-04T03:19:19.162Z,49.71
2022-10-04T03:19:41.192Z,49.80
2022-10-04T03:20:05.894Z,49.92
2022-10-04T03:20:29.135Z,49.60
2022-10-04T03:20:50.818Z,49.70
2022-10-04T03:21:15.620Z,49.63
2022-10-04T03:21:39.330Z,49.64
2022-10-04T03:22:08.237Z,49.68
2022-10-04T03:22:29.940Z,49.80
2022-10-04T03:22:55.569Z,49.75
2022-10-04T03:23:20.986Z,49.55
2022-10-04T03:23:47.092Z,49.30
2022-10-04T03:24:15.850Z,49.73
2022-10-04T03:24:43.264Z,49.74
2022-10-04T03:25:07.124Z,49.70
2022-10-04T03:25:33.798Z,49.77
2022-10-04T03:26:01.424Z,49.69
2022-10-04T03:26:29.629Z,49.87
2022-10-04T03:26:54.237Z,50.11
2022-10-04T03:27:20.771Z,49.80
2022-10-04T03:27:43.080Z,49.87
2022-10-04T03:28:05.118Z,49.85
2022-10-04T03:28:28.063Z,49.94
2022-10-04T03:28:50.022Z,49.90
2022-10-04T03:29:14.834Z,50.02
2022-10-04T03:29:42.739Z,50.06
2022-10-04T03:30:05.214Z,50.32
2022-10-04T03:30:27.133Z,50.20
2022-10-04T03:30:50.889Z,50.00
2022-10-04T03:31:13.887Z,50.00
2022-10-04T03:31:40.582Z,50.04
2022-10-04T03:32:05.004Z,50.20
2022-10-04T03:32:32.040Z,50.18
2022-10-04T03:32:54.105Z,50.17
2022-10-04T03:33:19.168Z,50.17
2022-10-04T03:33:42.861Z,50.19
2022-10-04T03:34:05.663Z,50.27
2022-10-04T03:34:32.184Z,50.10
2022-10-04T03:34:59.238Z,50.13
2022-10-04T03:35:28.544Z,49.96
2022-10-04T03:35:56.991Z,50.03
2022-10-04T03:36:20.428Z,49.88
2022-10-04T03:36:42.852Z,49.84
2022-10-04T03:37:07.546Z,49.87
2022-10-04T03:37:33.378Z,49.87
2022-10-04T03:37:57.769Z,49.94
2022-10-04T03:38:20.472Z,49.83
2022-10-04T03:38:43.485Z,49.95
2022-10-04T03:39:09.791Z,50.01
2022-10-04T03:39:35.389Z,49.79
2022-10-04T03:39:58.087Z,50.16
2022-10-04T03:40:21.571Z,49.80
2022-10-04T03:40:51.433Z,49.96
2022-10-04T03:41:16.442Z,50.20
2022-10-04T03:41:39.294Z,50.21
2022-10-04T03:42:04.360Z,50.09
2022-10-04T03:42:28.672Z,49.96
2022-10-04T03:42:51.258Z,49.76
2022-10-04T03:43:14.452Z,49.82
2022-10-04T03:43:41.905Z,49.52
2022-10-04T03:44:05.172Z,49.88
2022-10-04T03:44:28.161Z,49.65
2022-10-04T03:44:54.368Z,49.70
2022-10-04T03:45:19.541Z,49.89
2022-10-04T03:45:42.006Z,49.85
2022-10-04T03:46:06.315Z,50.02
2022-10-04T03:46:28.358Z,50.08
2022-10-04T03:46:49.946Z,49.99
2022-10-04T03:47:15.101Z,50.20
2022-10-04T03:47:41.341Z,50.11
2022-10-04T03:48:06.481Z,50.37
2022-10-04T03:48:31.459Z,50.49
2022-10-04T03:48:55.137Z,50.44
2022-10-04T03:49:31.129Z,50.14
2022-10-04T03:49:54.838Z,50.42
2022-10-04T03:50:25.234Z,50.83
2022-10-04T03:50:49.196Z,50.43
2022-10-04T03:51:17.164Z,50.66
2022-10-04T03:51:46.408Z,50.43
2022-10-04T03:52:16.980Z,50.42
2022-10-04T03:52:41.455Z,50.36
2022-10-04T03:53:10.384Z,50.16
2022-10-04T03:53:37.601Z,50.40
2022-10-04T03:54:02.425Z,50.18
2022-10-04T03:54:28.109Z,50.52
2022-10-04T03:54:53.173Z,50.39
2022-10-04T03:55:17.393Z,50.36
2022-10-04T03:55:43.504Z,50.06
2022-10-04T03:56:12.489Z,50.02
2022-10-04T03:56:36.588Z,49.99
2022-10-04T03:56:59.072Z,49.80
2022-10-04T03:57:21.383Z,49.96
2022-10-04T03:57:43.209Z,50.19
2022-10-04T03:58:07.924Z,49.85
2022-10-04T03:58:31.334Z,49.93
2022-10-04T03:58:53.869Z,49.92
2022-10-04T03:59:18.063Z,49.78
2022-10-04T03:59:41.012Z,49.79
2022-10-04T04:00:09.253Z,49.76
2022-10-04T04:00:43.546Z,49.47
2022-10-04T04:01:14.549Z,49.23
2022-10-04T04:01:41.315Z,49.49
2022-10-04T04:02:09.497Z,49.64
2022-10-04T04:02:36.287Z,49.55
2022-10-04T04:03:04.018Z,49.64
2022-10-04T04:03:29.728Z,49.50
2022-10-04T04:03:57.500Z,49.28
2022-10-04T04:04:25.552Z,49.41
2022-10-04T04:04:55.764Z,49.26
2022-10-04T04:05:24.082Z,48.98
2022-10-04T04:05:50.147Z,48.98
2022-10-04T04:06:16.933Z,49.01
2022-10-04T04:06:44.003Z,49.03
2022-10-04T04:07:10.111Z,49.22
2022-10-04T04:07:39.908Z,49.29
2022-10-04T04:08:07.324Z,49.00
2022-10-04T04:08:33.302Z,48.93
2022-10-04T04:08:57.610Z,49.06
2022-10-04T04:09:25.760Z,49.04
2022-10-04T04:09:52.791Z,49.20
2022-10-04T04:10:21.568Z,48.89
2022-10-04T04:10:46.997Z,48.94
2022-10-04T04:11:19.740Z,49.03
2022-10-04T04:11:41.721Z,49.15
2022-10-04T04:12:06.658Z,49.18
2022-10-04T04:12:38.824Z,49.44
2022-10-04T04:13:05.414Z,49.42
2022-10-04T04:13:31.065Z,49.59
2022-10-04T04:14:01.221Z,49.49
2022-10-04T04:14:27.076Z,49.62
2022-10-04T04:14:51.322Z,49.57
2022-10-04T04:15:14.578Z,49.64
2022-10-04T04:15:36.641Z,49.83
2022-10-04T04:16:03.087Z,50.07
2022-10-04T04:16:26.425Z,49.91
2022-10-04T04:16:49.439Z,50.04
2022-10-04T04:17:30.012Z,50.34
2022-10-04T04:17:54.241Z,50.24
2022-10-04T04:18:20.328Z,50.28
2022-10-04T04:18:44.248Z,50.09
2022-10-04T04:19:13.194Z,49.99
2022-10-04T04:19:36.873Z,50.03
2022-10-04T04:20:06.149Z,50.47
2022-10-04T04:20:32.865Z,50.36
2022-10-04T04:20:58.916Z,50.46
2022-10-04T04:21:24.105Z,50.32
2022-10-04T04:21:46.384Z,50.11
2022-10-04T04:22:15.556Z,50.37
2022-10-04T04:22:39.094Z,50.51
2022-10-04T04:23:04.180Z,50.25
2022-10-04T04:23:29.084Z,50.31
2022-10-04T04:23:56.714Z,50.00
2022-10-04T04:24:24.893Z,50.04
2022-10-04T04:24:47.405Z,49.92
2022-10-04T04:25:14.669Z,49.98
2022-10-04T04:25:39.442Z,49.88
2022-10-04T04:26:15.673Z,50.06
2022-10-04T04:26:40.948Z,49.63
2022-10-04T04:27:05.142Z,49.87
2022-10-04T04:27:29.196Z,49.75
2022-10-04T04:27:56.219Z,49.70
2022-10-04T04:28:26.066Z,49.55
2022-10-04T04:28:52.013Z,49.44
2022-10-04T04:29:18.867Z,49.57
2022-10-04T04:29:45.616Z,49.33
2022-10-04T04:30:08.857Z,49.42
2022-10-04T04:30:35.832Z,49.33
2022-10-04T04:31:04.084Z,49.62
2022-10-04T04:31:29.918Z,49.60
2022-10-04T04:31:55.801Z,49.63
2022-10-04T04:32:23.093Z,49.49
2022-10-04T04:32:48.082Z,49.14
2022-10-04T04:33:26.781Z,49.43
2022-10-04T04:33:59.157Z,49.34
2022-10-04T04:34:26.809Z,49.04
2022-10-04T04:34:52.900Z,49.25
2022-10-04T04:35:24.455Z,49.42
2022-10-04T04:35:46.363Z,49.25
2022-10-04T04:36:11.988Z,49.28
2022-10-04T04:36:40.204Z,48.99
2022-10-04T04:37:04.637Z,48.92
2022-10-04T04:37:26.769Z,48.72
2022-10-04T04:38:03.373Z,48.80
2022-10-04T04:38:26.805Z,48.95
2022-10-04T04:39:05.904Z,48.69
2022-10-04T04:39:39.641Z,48.67
2022-10-04T04:40:19.783Z,48.92
2022-10-04T04:40:42.784Z,48.81
2022-10-04T04:41:10.699Z,48.88
2022-10-04T04:41:35.365Z,48.97
2022-10-04T04:41:56.963Z,49.05
2022-10-04T04:42:23.798Z,49.11
2022-10-04T04:42:46.905Z,49.38
2022-10-04T04:43:14.584Z,49.63
2022-10-04T04:43:36.397Z,49.45
2022-10-04T04:43:59.229Z,49.52
2022-10-04T04:44:21.696Z,49.55
2022-10-04T04:44:48.992Z,49.55
2022-10-04T04:45:18.345Z,49.53
2022-10-04T04:45:40.133Z,49.68
2022-10-04T04:46:26.225Z,49.64
2022-10-04T04:46:45.108Z,49.92
2022-10-04T04:47:12.571Z,49.96
2022-10-04T04:47:40.616Z,49.67
2022-10-04T04:48:03.859Z,49.75
2022-10-04T04:48:25.514Z,49.81
2022-10-04T04:48:50.589Z,49.93
2022-10-04T04:49:15.452Z,50.11
2022-10-04T04:49:40.126Z,49.97
2022-10-04T04:50:08.156Z,49.93
2022-10-04T04:50:33.262Z,50.14
2022-10-04T04:50:57.952Z,50.24
2022-10-04T04:51:22.932Z,50.44
2022-10-04T04:51:50.270Z,50.08
2022-10-04T04:52:17.822Z,50.28
2022-10-04T04:52:41.184Z,50.28
2022-10-04T04:53:09.340Z,50.11
2022-10-04T04:53:31.363Z,50.29
2022-10-04T04:53:56.533Z,50.07
2022-10-04T04:54:22.183Z,50.15
2022-10-04T04:54:47.030Z,49.88
2022-10-04T04:55:18.803Z,49.98
2022-10-04T04:56:02.435Z,50.04
2022-10-04T04:56:29.112Z,50.08
2022-10-04T04:56:52.895Z,49.93
2022-10-04T04:57:16.541Z,49.80
2022-10-04T04:57:40.183Z,49.89
2022-10-04T04:58:03.143Z,50.11
2022-10-04T04:58:32.874Z,50.13
2022-10-04T04:58:59.576Z,49.98
2022-10-04T04:59:22.811Z,49.98
2022-10-04T04:59:49.923Z,50.31
2022-10-04T05:00:18.461Z,50.36
2022-10-04T05:00:41.562Z,50.24
2022-10-04T05:01:06.026Z,50.25
2022-10-04T05:01:35.279Z,50.24
2022-10-04T05:01:56.990Z,50.29
2022-10-04T05:02:34.922Z,50.42
2022-10-04T05:03:01.020Z,50.05
2022-10-04T05:03:23.031Z,50.03
2022-10-04T05:03:44.622Z,50.18
2022-10-04T05:04:17.405Z,50.27
2022-10-04T05:04:39.970Z,50.29
2022-10-04T05:05:16.224Z,50.80
2022-10-04T05:05:38.100Z,50.48
2022-10-04T05:06:04.556Z,50.23
2022-10-04T05:06:27.830Z,50.50
2022-10-04T05:07:00.940Z,50.60
2022-10-04T05:07:22.516Z,50.63
2022-10-04T05:07:44.319Z,50.46
2022-10-04T05:08:16.554Z,50.38
2022-10-04T05:08:41.530Z,50.78
2022-10-04T05:09:05.045Z,51.01
2022-10-04T05:09:31.412Z,50.84
2022-10-04T05:09:52.978Z,50.60
2022-10-04T05:10:30.181Z,50.61
2022-10-04T05:11:05.307Z,50.55
2022-10-04T05:11:29.440Z,50.61
2022-10-04T05:11:55.086Z,50.63
2022-10-04T05:12:20.527Z,50.37
2022-10-04T05:12:42.164Z,50.58
2022-10-04T05:13:04.286Z,50.48
2022-10-04T05:13:32.515Z,50.23
2022-10-04T05:14:02.319Z,50.30
2022-10-04T05:14:24.145Z,50.48
2022-10-04T05:14:50.838Z,50.45
2022-10-04T05:15:12.885Z,50.22
2022-10-04T05:15:37.313Z,50.33
2022-10-04T05:16:01.270Z,50.01
2022-10-04T05:16:28.366Z,49.92
2022-10-04T05:16:52.492Z,50.31
2022-10-04T05:17:20.046Z,50.22
2022-10-04T05:17:42.834Z,50.20
2022-10-04T05:18:16.164Z,50.26
2022-10-04T05:18:37.987Z,50.24
2022-10-04T05:19:04.725Z,50.15
2022-10-04T05:19:31.118Z,50.18
2022-10-04T05:19:56.279Z,50.18
2022-10-04T05:20:18.615Z,50.43
2022-10-04T05:20:43.798Z,50.40
2022-10-04T05:21:12.888Z,50.22
2022-10-04T05:21:38.603Z,50.18
2022-10-04T05:22:10.175Z,50.35
2022-10-04T05:22:32.800Z,50.05
2022-10-04T05:22:55.732Z,50.13
2022-10-04T05:23:17.553Z,50.28
2022-10-04T05:23:39.315Z,50.15
2022-10-04T05:24:11.087Z,50.08
2022-10-04T05:24:37.863Z,50.17
2022-10-04T05:25:08.423Z,50.01
2022-10-04T05:25:33.892Z,50.08
2022-10-04T05:25:56.651Z,50.11
2022-10-04T05:26:29.414Z,49.95
2022-10-04T05:26:54.199Z,50.23
2022-10-04T05:27:25.224Z,50.26
2022-10-04T05:27:46.917Z,49.95
2022-10-04T05:28:11.095Z,49.97
2022-10-04T05:28:33.296Z,50.15
2022-10-04T05:28:56.953Z,49.92
2022-10-04T05:29:21.519Z,50.08
2022-10-04T05:29:55.652Z,50.13
2022-10-04T05:30:34.085Z,50.25
2022-10-04T05:31:08.699Z,49.98
2022-10-04T05:31:41.365Z,50.09
2022-10-04T05:32:16.687Z,49.80
2022-10-04T05:32:49.528Z,50.06
2022-10-04T05:33:14.438Z,49.79
2022-10-04T05:33:47.271Z,49.89
2022-10-04T05:34:21.820Z,49.73
2022-10-04T05:34:45.269Z,49.58
2022-10-04T05:35:17.601Z,49.76
2022-10-04T05:35:48.048Z,49.61
2022-10-04T05:36:31.572Z,49.83
2022-10-04T05:37:06.912Z,49.87
2022-10-04T05:37:42.681Z,49.35
2022-10-04T05:38:09.534Z,49.63
2022-10-04T05:38:37.827Z,49.80
2022-10-04T05:39:05.393Z,49.57
2022-10-04T05:39:32.097Z,49.67
2022-10-04T05:40:07.587Z,49.76
2022-10-04T05:40:39.408Z,49.66
2022-10-04T05:41:06.722Z,49.73
2022-10-04T05:41:39.308Z,49.32
2022-10-04T05:42:07.649Z,49.57
2022-10-04T05:42:37.880Z,49.30
2022-10-04T05:43:00.596Z,49.40
2022-10-04T05:43:29.344Z,49.50
2022-10-04T05:43:52.294Z,49.40
2022-10-04T05:44:25.396Z,49.61
2022-10-04T05:44:52.739Z,49.48
2022-10-04T05:45:18.498Z,49.46
2022-10-04T05:45:40.183Z,49.53
2022-10-04T05:46:19.347Z,49.28
2022-10-04T05:46:44.144Z,49.55
2022-10-04T05:47:08.139Z,49.37
2022-10-04T05:47:31.202Z,49.64
2022-10-04T05:47:55.707Z,49.74
2022-10-04T05:48:25.514Z,49.66
2022-10-04T05:48:52.757Z,49.38